createdAt,value
2019-01-13T00:00:17.743Z,95072.1
2019-01-13T00:01:20.183Z,95070
2019-01-13T00:02:22.713Z,95070
2019-01-13T00:03:24.893Z,95077.1
2019-01-13T00:04:26.800Z,95079.5
2019-01-13T00:05:28.960Z,95074.9
2019-01-13T00:06:30.842Z,95081.1
2019-01-13T00:07:33.276Z,95075.8
2019-01-13T00:08:35.712Z,95077.8
2019-01-13T00:09:38.142Z,95075.7
2019-01-13T00:10:40.562Z,95072.6
2019-01-13T00:11:42.715Z,95076.7
2019-01-13T00:12:44.853Z,95078.5
2019-01-13T00:13:47.291Z,95075.4
2019-01-13T00:14:48.903Z,95078.2
2019-01-13T00:15:51.342Z,95070.9
2019-01-13T00:16:53.505Z,95072.9
2019-01-13T00:17:55.940Z,95067.6
2019-01-13T00:18:58.076Z,95069.4
2019-01-13T00:20:00.518Z,95059.7
2019-01-13T00:21:02.942Z,95064.6
2019-01-13T00:22:05.076Z,95075.6
2019-01-13T00:23:07.235Z,95074.5
2019-01-13T00:24:09.697Z,95059.3
2019-01-13T00:25:11.876Z,95074.4
2019-01-13T00:26:13.763Z,95074.8
2019-01-13T00:27:16.184Z,95067.5
2019-01-13T00:28:18.622Z,95069.4
2019-01-13T00:29:21.055Z,95065.2
2019-01-13T00:30:23.478Z,95064.6
2019-01-13T00:31:25.913Z,95061.4
2019-01-13T00:32:28.338Z,95061.6
2019-01-13T00:33:30.778Z,95065.2
2019-01-13T00:34:33.207Z,95060.3
2019-01-13T00:35:35.645Z,95065.6
2019-01-13T00:36:38.076Z,95064
2019-01-13T00:37:40.538Z,95061
2019-01-13T00:38:42.705Z,95063.5
2019-01-13T00:39:44.600Z,95069.2
2019-01-13T00:40:46.221Z,95067.8
2019-01-13T00:41:48.653Z,95063.6
2019-01-13T00:42:50.813Z,95070.7
2019-01-13T00:43:52.702Z,95066.6
2019-01-13T00:44:55.143Z,95065.3
2019-01-13T00:45:57.570Z,95063.5
2019-01-13T00:46:59.765Z,95060.8
2019-01-13T00:48:01.913Z,95067.4
2019-01-13T00:49:04.055Z,95062.9
2019-01-13T00:50:06.474Z,95066.2
2019-01-13T00:51:08.920Z,95072.6
2019-01-13T00:52:11.343Z,95059.8
2019-01-13T00:53:13.759Z,95061.9
2019-01-13T00:54:16.193Z,95063
2019-01-13T00:55:18.352Z,95065.2
2019-01-13T00:56:20.521Z,95062.3
2019-01-13T00:57:22.425Z,95065
2019-01-13T00:58:24.854Z,95061.8
2019-01-13T00:59:26.979Z,95061.9
2019-01-13T01:00:29.413Z,95055.2
2019-01-13T01:01:31.827Z,95057.5
2019-01-13T01:02:34.241Z,95065.8
2019-01-13T01:03:36.131Z,95067.2
2019-01-13T01:04:38.571Z,95069.9
2019-01-13T01:05:40.720Z,95070.4
2019-01-13T01:06:43.181Z,95067.4
2019-01-13T01:07:47.042Z,95081.5
2019-01-13T01:08:49.511Z,95075.9
2019-01-13T01:09:51.666Z,95073.5
2019-01-13T01:10:53.821Z,95070
2019-01-13T01:11:56.254Z,95072.6
2019-01-13T01:12:58.681Z,95070.2
2019-01-13T01:14:00.836Z,95067.7
2019-01-13T01:15:03.249Z,95077.8
2019-01-13T01:16:05.669Z,95073.6
2019-01-13T01:17:08.099Z,95075.2
2019-01-13T01:18:10.520Z,95072.2
2019-01-13T01:19:12.688Z,95079.5
2019-01-13T01:20:14.835Z,95078.3
2019-01-13T01:21:17.256Z,95086.5
2019-01-13T01:22:19.401Z,95084.3
2019-01-13T01:23:21.541Z,95076.2
2019-01-13T01:24:23.417Z,95074.6
2019-01-13T01:25:25.574Z,95078.4
2019-01-13T01:26:27.735Z,95072.8
2019-01-13T01:27:29.905Z,95072.1
2019-01-13T01:28:32.332Z,95067.6
2019-01-13T01:29:34.807Z,95068.2
2019-01-13T01:30:37.221Z,95064.7
2019-01-13T01:31:39.647Z,95071.5
2019-01-13T01:32:42.126Z,95069.8
2019-01-13T01:33:44.543Z,95064.1
2019-01-13T01:34:46.716Z,95065.4
2019-01-13T01:35:48.878Z,95068.1
2019-01-13T01:36:51.071Z,95069.4
2019-01-13T01:37:52.969Z,95071.6
2019-01-13T01:38:55.118Z,95063.8
2019-01-13T01:39:57.544Z,95067.7
2019-01-13T01:40:59.971Z,95077
2019-01-13T01:42:02.409Z,95073.3
2019-01-13T01:43:04.294Z,95068.2
2019-01-13T01:44:06.715Z,95070.5
2019-01-13T01:45:09.134Z,95070.7
2019-01-13T01:46:11.274Z,95069.3
2019-01-13T01:47:13.706Z,95072.9
2019-01-13T01:48:16.135Z,95071
2019-01-13T01:49:18.297Z,95071.9
2019-01-13T01:50:20.737Z,95069
2019-01-13T01:51:22.875Z,95062
2019-01-13T01:52:25.305Z,95066.3
2019-01-13T01:53:27.749Z,95069.6
2019-01-13T01:54:29.877Z,95072.4
2019-01-13T01:55:32.305Z,95071.1
2019-01-13T01:56:34.455Z,95071.1
2019-01-13T01:57:36.873Z,95066
2019-01-13T01:58:39.293Z,95072
2019-01-13T01:59:41.454Z,95076.4
2019-01-13T02:00:43.302Z,95070.8
2019-01-13T02:01:45.456Z,95069.5
2019-01-13T02:02:47.895Z,95072.6
2019-01-13T02:03:49.784Z,95073.3
2019-01-13T02:04:52.332Z,95072.6
2019-01-13T02:05:54.872Z,95076.9
2019-01-13T02:06:57.303Z,95076.2
2019-01-13T02:07:59.813Z,95083.2
2019-01-13T02:09:02.315Z,95079.6
2019-01-13T02:10:04.721Z,95075.6
2019-01-13T02:11:06.844Z,95078.7
2019-01-13T02:12:08.996Z,95084.1
2019-01-13T02:13:11.149Z,95079.5
2019-01-13T02:14:13.570Z,95075.2
2019-01-13T02:15:15.999Z,95085.3
2019-01-13T02:16:18.155Z,95074.8
2019-01-13T02:17:20.597Z,95071.4
2019-01-13T02:18:22.485Z,95075.8
2019-01-13T02:19:24.362Z,95075.2
2019-01-13T02:20:26.511Z,95078
2019-01-13T02:21:28.933Z,95079.5
2019-01-13T02:22:31.094Z,95076.7
2019-01-13T02:23:33.524Z,95076.9
2019-01-13T02:24:35.434Z,95078.7
2019-01-13T02:25:37.867Z,95077.8
2019-01-13T02:26:40.299Z,95082.8
2019-01-13T02:27:42.156Z,95078.4
2019-01-13T02:28:44.583Z,95073.1
2019-01-13T02:29:46.751Z,95072.4
2019-01-13T02:30:50.996Z,95079.7
2019-01-13T02:31:53.158Z,95082.3
2019-01-13T02:32:55.312Z,95086.8
2019-01-13T02:33:57.765Z,95075.1
2019-01-13T02:35:00.192Z,95082.9
2019-01-13T02:36:02.627Z,95075.4
2019-01-13T02:37:04.777Z,95078.5
2019-01-13T02:38:06.934Z,95087
2019-01-13T02:39:09.386Z,95073.1
2019-01-13T02:40:11.245Z,95082
2019-01-13T02:41:13.415Z,95073.1
2019-01-13T02:42:15.842Z,95085.1
2019-01-13T02:43:18.281Z,95078.5
2019-01-13T02:44:20.427Z,95079.7
2019-01-13T02:45:22.324Z,95081
2019-01-13T02:46:24.455Z,95076.4
2019-01-13T02:47:26.885Z,95077.2
2019-01-13T02:48:29.326Z,95080.3
2019-01-13T02:49:31.758Z,95070.8
2019-01-13T02:50:34.184Z,95076
2019-01-13T02:51:36.318Z,95085.7
2019-01-13T02:52:38.457Z,95083.3
2019-01-13T02:53:40.876Z,95074.5
2019-01-13T02:54:43.302Z,95080.8
2019-01-13T02:55:45.471Z,95076.2
2019-01-13T02:56:47.623Z,95079.1
2019-01-13T02:57:50.053Z,95084
2019-01-13T02:58:52.206Z,95076.9
2019-01-13T02:59:54.644Z,95077.4
2019-01-13T03:00:58.535Z,95069.6
2019-01-13T03:02:00.426Z,95069.3
2019-01-13T03:03:02.701Z,95070.2
2019-01-13T03:04:04.849Z,95068.9
2019-01-13T03:05:07.277Z,95067.9
2019-01-13T03:06:09.707Z,95067.8
2019-01-13T03:07:11.571Z,95062.2
2019-01-13T03:08:13.766Z,95066.3
2019-01-13T03:09:15.623Z,95060.3
2019-01-13T03:10:18.059Z,95063.4
2019-01-13T03:11:20.486Z,95056.9
2019-01-13T03:12:22.910Z,95074
2019-01-13T03:13:25.078Z,95071.2
2019-01-13T03:14:27.505Z,95065.5
2019-01-13T03:15:29.933Z,95066.6
2019-01-13T03:16:32.364Z,95063.6
2019-01-13T03:17:34.791Z,95060.2
2019-01-13T03:18:36.675Z,95067
2019-01-13T03:19:38.853Z,95068.3
2019-01-13T03:20:41.004Z,95064
2019-01-13T03:21:43.140Z,95065.1
2019-01-13T03:22:45.039Z,95065.8
2019-01-13T03:23:47.165Z,95066.6
2019-01-13T03:24:49.055Z,95068
2019-01-13T03:25:51.267Z,95068.7
2019-01-13T03:26:53.426Z,95066.1
2019-01-13T03:27:55.858Z,95062.9
2019-01-13T03:28:57.740Z,95059
2019-01-13T03:30:00.207Z,95057.8
2019-01-13T03:32:07.525Z,95053.9
2019-01-13T03:33:09.972Z,95058.2
2019-01-13T03:34:12.410Z,95057.9
2019-01-13T03:35:14.835Z,95063.9
2019-01-13T03:36:17.014Z,95057.8
2019-01-13T03:37:19.464Z,95059.2
2019-01-13T03:38:21.635Z,95058.4
2019-01-13T03:39:24.070Z,95069.6
2019-01-13T03:40:26.496Z,95061.8
2019-01-13T03:41:28.646Z,95060.5
2019-01-13T03:42:31.077Z,95059
2019-01-13T03:43:33.222Z,95056.1
2019-01-13T03:44:35.660Z,95055.3
2019-01-13T03:45:38.075Z,95055.6
2019-01-13T03:46:40.498Z,95054.3
2019-01-13T03:47:42.971Z,95056.1
2019-01-13T03:48:45.415Z,95058
2019-01-13T03:49:47.283Z,95049.4
2019-01-13T03:50:49.701Z,95055.2
2019-01-13T03:51:52.146Z,95058.3
2019-01-13T03:52:54.747Z,95054.9
2019-01-13T03:53:57.173Z,95054.2
2019-01-13T03:54:59.603Z,95056.7
2019-01-13T03:56:02.173Z,95052.7
2019-01-13T03:57:04.611Z,95059.1
2019-01-13T03:58:07.035Z,95056.5
2019-01-13T03:59:09.469Z,95053.6
2019-01-13T04:00:11.666Z,95059.1
2019-01-13T04:02:19.075Z,95056.2
2019-01-13T04:03:21.229Z,95065.3
2019-01-13T04:04:23.359Z,95058.7
2019-01-13T04:05:25.246Z,95064.4
2019-01-13T04:06:27.672Z,95064.3
2019-01-13T04:07:30.093Z,95063.9
2019-01-13T04:08:31.997Z,95061.4
2019-01-13T04:09:34.426Z,95060.7
2019-01-13T04:10:36.845Z,95068.5
2019-01-13T04:11:39.280Z,95063.6
2019-01-13T04:12:41.705Z,95060.7
2019-01-13T04:13:43.588Z,95067.8
2019-01-13T04:14:46.004Z,95062.3
2019-01-13T04:15:48.434Z,95063.3
2019-01-13T04:16:50.322Z,95062.8
2019-01-13T04:17:52.495Z,95056.6
2019-01-13T04:18:54.650Z,95063.9
2019-01-13T04:19:56.534Z,95058.8
2019-01-13T04:20:59.005Z,95057.2
2019-01-13T04:22:01.156Z,95059.6
2019-01-13T04:23:03.572Z,95063.2
2019-01-13T04:24:05.713Z,95061.5
2019-01-13T04:25:08.166Z,95061.7
2019-01-13T04:26:10.354Z,95066
2019-01-13T04:27:12.499Z,95064.5
2019-01-13T04:28:14.660Z,95066.3
2019-01-13T04:29:17.109Z,95067.9
2019-01-13T04:30:19.254Z,95067.9
2019-01-13T04:32:26.671Z,95071.8
2019-01-13T04:33:29.096Z,95068
2019-01-13T04:34:31.519Z,95073.7
2019-01-13T04:35:33.671Z,95064.8
2019-01-13T04:36:35.831Z,95069.4
2019-01-13T04:37:38.314Z,95062.9
2019-01-13T04:38:40.464Z,95059
2019-01-13T04:39:42.894Z,95069.6
2019-01-13T04:40:45.323Z,95060
2019-01-13T04:41:47.863Z,95065.4
2019-01-13T04:42:50.312Z,95067.9
2019-01-13T04:43:52.753Z,95062.6
2019-01-13T04:44:55.194Z,95063.5
2019-01-13T04:45:57.085Z,95064.9
2019-01-13T04:46:59.260Z,95063.6
2019-01-13T04:48:01.696Z,95068.9
2019-01-13T04:49:03.826Z,95064.8
2019-01-13T04:50:06.254Z,95063.2
2019-01-13T04:51:08.685Z,95062.3
2019-01-13T04:52:11.125Z,95059.9
2019-01-13T04:53:13.551Z,95063.3
2019-01-13T04:54:15.982Z,95061.2
2019-01-13T04:55:18.441Z,95062.8
2019-01-13T04:56:20.583Z,95057.5
2019-01-13T04:57:23.004Z,95059.4
2019-01-13T04:58:24.904Z,95053.5
2019-01-13T04:59:26.800Z,95055.5
2019-01-13T05:00:28.957Z,95058.4
2019-01-13T05:02:35.808Z,95059.6
2019-01-13T05:03:37.954Z,95058
2019-01-13T05:04:40.388Z,95054.6
2019-01-13T05:05:42.553Z,95052.8
2019-01-13T05:06:45.009Z,95053.8
2019-01-13T05:07:47.155Z,95053.3
2019-01-13T05:08:49.314Z,95059.3
2019-01-13T05:09:51.472Z,95058.5
2019-01-13T05:10:53.900Z,95066.5
2019-01-13T05:11:56.336Z,95059.7
2019-01-13T05:12:58.757Z,95058.6
2019-01-13T05:14:01.790Z,95064.5
2019-01-13T05:15:04.220Z,95066.3
2019-01-13T05:16:06.653Z,95064.6
2019-01-13T05:17:09.177Z,95070.7
2019-01-13T05:18:11.604Z,95068
2019-01-13T05:19:14.026Z,95069.4
2019-01-13T05:20:16.466Z,95067.4
2019-01-13T05:21:18.644Z,95066.3
2019-01-13T05:22:20.808Z,95066.6
2019-01-13T05:23:22.685Z,95067.6
2019-01-13T05:24:24.816Z,95069.3
2019-01-13T05:25:26.974Z,95070
2019-01-13T05:26:29.125Z,95071.9
2019-01-13T05:27:31.552Z,95067.1
2019-01-13T05:28:33.134Z,95062.9
2019-01-13T05:29:35.259Z,95063.4
2019-01-13T05:30:37.404Z,95064.8
2019-01-13T05:32:44.545Z,95065
2019-01-13T05:33:46.700Z,95062.6
2019-01-13T05:34:49.116Z,95061.9
2019-01-13T05:35:51.277Z,95068.3
2019-01-13T05:36:53.420Z,95066.1
2019-01-13T05:37:55.847Z,95064.6
2019-01-13T05:38:58.273Z,95061.7
2019-01-13T05:40:00.709Z,95068.4
2019-01-13T05:41:03.134Z,95068.9
2019-01-13T05:42:05.566Z,95062.4
2019-01-13T05:43:08.014Z,95058.3
2019-01-13T05:44:09.863Z,95059.3
2019-01-13T05:45:11.751Z,95056.7
2019-01-13T05:46:14.177Z,95061.6
2019-01-13T05:47:16.617Z,95059.7
2019-01-13T05:48:18.764Z,95056.6
2019-01-13T05:49:21.192Z,95056.2
2019-01-13T05:50:23.616Z,95063.5
2019-01-13T05:51:26.041Z,95060.9
2019-01-13T05:52:28.215Z,95068.4
2019-01-13T05:53:30.642Z,95060.6
2019-01-13T05:54:32.803Z,95064.1
2019-01-13T05:55:34.420Z,95066.1
2019-01-13T05:56:36.844Z,95056.9
2019-01-13T05:57:39.265Z,95059.7
2019-01-13T05:58:40.866Z,95069.2
2019-01-13T05:59:43.332Z,95065.6
2019-01-13T06:00:45.760Z,95066.8
2019-01-13T06:02:53.173Z,95065.3
2019-01-13T06:03:55.333Z,95064.4
2019-01-13T06:04:57.749Z,95069.4
2019-01-13T06:05:59.894Z,95072.5
2019-01-13T06:07:02.316Z,95071.4
2019-01-13T06:08:04.470Z,95077.7
2019-01-13T06:09:06.903Z,95073.1
2019-01-13T06:10:09.032Z,95073.7
2019-01-13T06:11:11.454Z,95070.1
2019-01-13T06:12:13.904Z,95071.3
2019-01-13T06:13:16.324Z,95071.6
2019-01-13T06:14:18.752Z,95077.3
2019-01-13T06:15:20.908Z,95076
2019-01-13T06:16:23.345Z,95074.1
2019-01-13T06:17:25.770Z,95076.5
2019-01-13T06:18:27.914Z,95074.4
2019-01-13T06:19:30.077Z,95067.8
2019-01-13T06:20:32.502Z,95070.9
2019-01-13T06:21:34.957Z,95069.3
2019-01-13T06:22:37.388Z,95066.2
2019-01-13T06:23:39.543Z,95070.6
2019-01-13T06:24:41.984Z,95064.8
2019-01-13T06:25:44.130Z,95070.5
2019-01-13T06:26:46.550Z,95070.3
2019-01-13T06:27:49.050Z,95064.1
2019-01-13T06:28:51.208Z,95070
2019-01-13T06:29:52.817Z,95062.4
2019-01-13T06:30:54.965Z,95063.9
2019-01-13T06:31:58.036Z,95061
2019-01-13T06:33:00.464Z,95064.3
2019-01-13T06:34:02.667Z,95067.7
2019-01-13T06:35:05.104Z,95063.8
2019-01-13T06:36:07.532Z,95060.3
2019-01-13T06:37:09.686Z,95058.2
2019-01-13T06:38:12.112Z,95064.5
2019-01-13T06:39:14.541Z,95061.9
2019-01-13T06:40:16.993Z,95061.9
2019-01-13T06:41:18.895Z,95059.1
2019-01-13T06:42:20.777Z,95056.9
2019-01-13T06:43:23.204Z,95047.1
2019-01-13T06:44:25.631Z,95051.2
2019-01-13T06:45:27.767Z,95048.3
2019-01-13T06:46:29.914Z,95046
2019-01-13T06:47:32.072Z,95042.8
2019-01-13T06:48:34.222Z,95043.9
2019-01-13T06:49:36.365Z,95044.8
2019-01-13T06:50:38.784Z,95043.4
2019-01-13T06:51:41.209Z,95042.5
2019-01-13T06:52:43.365Z,95049.4
2019-01-13T06:53:45.551Z,95043.9
2019-01-13T06:54:47.441Z,95050.3
2019-01-13T06:55:49.885Z,95043.3
2019-01-13T06:56:52.305Z,95042.2
2019-01-13T06:57:54.455Z,95048.8
2019-01-13T06:58:56.875Z,95050.2
2019-01-13T06:59:59.288Z,95045.6
2019-01-13T07:01:01.446Z,95048.8
2019-01-13T07:02:04.675Z,95057.3
2019-01-13T07:03:07.104Z,95049.4
2019-01-13T07:04:09.273Z,95054.3
2019-01-13T07:05:11.781Z,95053.2
2019-01-13T07:06:14.205Z,95054.3
2019-01-13T07:07:16.624Z,95052.6
2019-01-13T07:08:19.054Z,95051.5
2019-01-13T07:09:21.483Z,95056.6
2019-01-13T07:10:23.910Z,95056.3
2019-01-13T07:11:26.051Z,95062.8
2019-01-13T07:12:28.483Z,95058.8
2019-01-13T07:13:30.915Z,95064.4
2019-01-13T07:14:33.339Z,95056.6
2019-01-13T07:15:35.491Z,95058.7
2019-01-13T07:16:37.913Z,95056.3
2019-01-13T07:17:39.789Z,95049.7
2019-01-13T07:18:41.942Z,95052.4
2019-01-13T07:19:44.107Z,95048.8
2019-01-13T07:20:46.265Z,95047.5
2019-01-13T07:21:48.431Z,95054.3
2019-01-13T07:22:50.567Z,95056.5
2019-01-13T07:23:53.005Z,95050.3
2019-01-13T07:24:55.143Z,95049.7
2019-01-13T07:25:57.306Z,95049.8
2019-01-13T07:26:59.735Z,95047.2
2019-01-13T07:28:01.882Z,95041.8
2019-01-13T07:29:04.315Z,95039
2019-01-13T07:30:06.735Z,95047.4
2019-01-13T07:31:09.161Z,95042.3
2019-01-13T07:32:12.087Z,95045.4
2019-01-13T07:33:14.535Z,95042.3
2019-01-13T07:34:16.962Z,95036.9
2019-01-13T07:35:19.135Z,95032.2
2019-01-13T07:36:21.573Z,95028.8
2019-01-13T07:37:24.008Z,95030.8
2019-01-13T07:38:26.180Z,95026
2019-01-13T07:39:28.605Z,95021.2
2019-01-13T07:40:30.809Z,95029.1
2019-01-13T07:41:32.710Z,95025.5
2019-01-13T07:42:35.132Z,95030.1
2019-01-13T07:43:37.293Z,95025.4
2019-01-13T07:44:39.743Z,95031.1
2019-01-13T07:45:42.211Z,95026.2
2019-01-13T07:46:44.366Z,95029.1
2019-01-13T07:47:46.801Z,95027
2019-01-13T07:48:48.953Z,95021.4
2019-01-13T07:49:51.395Z,95020.9
2019-01-13T07:50:53.837Z,95017.5
2019-01-13T07:51:55.991Z,95019.1
2019-01-13T07:52:58.415Z,95011.7
2019-01-13T07:54:00.836Z,95013.5
2019-01-13T07:55:03.259Z,95014.5
2019-01-13T07:56:05.425Z,95015.7
2019-01-13T07:57:07.857Z,95016.9
2019-01-13T07:58:10.281Z,95013.4
2019-01-13T07:59:12.747Z,95012
2019-01-13T08:00:15.184Z,95011.1
2019-01-13T08:01:17.619Z,95008.2
2019-01-13T08:02:20.054Z,95009.8
2019-01-13T08:03:22.476Z,95012.1
2019-01-13T08:04:24.653Z,95014
2019-01-13T08:05:26.814Z,95016.4
2019-01-13T08:06:28.981Z,95016.6
2019-01-13T08:07:30.861Z,95017.4
2019-01-13T08:08:33.307Z,95023.8
2019-01-13T08:09:35.736Z,95021.5
2019-01-13T08:10:38.175Z,95017.6
2019-01-13T08:11:39.775Z,95022.5
2019-01-13T08:12:41.923Z,95017.8
2019-01-13T08:13:44.085Z,95018.4
2019-01-13T08:14:46.520Z,95018.4
2019-01-13T08:15:48.953Z,95013.4
2019-01-13T08:16:51.401Z,95009.6
2019-01-13T08:17:53.827Z,95006.5
2019-01-13T08:18:56.266Z,95005.8
2019-01-13T08:19:58.407Z,95005.7
2019-01-13T08:21:00.841Z,95008.8
2019-01-13T08:22:03.269Z,95004.1
2019-01-13T08:23:05.439Z,95009.3
2019-01-13T08:24:07.891Z,95006.2
2019-01-13T08:25:10.412Z,95010.5
2019-01-13T08:26:12.598Z,94998.5
2019-01-13T08:27:15.048Z,95001.8
2019-01-13T08:28:17.179Z,95007.1
2019-01-13T08:29:19.069Z,95008.2
2019-01-13T08:30:21.235Z,95005.1
2019-01-13T08:31:23.371Z,95000.3
2019-01-13T08:32:26.619Z,95007.3
2019-01-13T08:33:29.051Z,95010
2019-01-13T08:34:31.479Z,95007.6
2019-01-13T08:35:33.368Z,95006.2
2019-01-13T08:36:35.529Z,95004.9
2019-01-13T08:37:37.685Z,95003.4
2019-01-13T08:38:40.125Z,95000.5
2019-01-13T08:39:42.295Z,94999.6
2019-01-13T08:40:44.427Z,95002
2019-01-13T08:41:46.852Z,95002.9
2019-01-13T08:42:49.022Z,95001.6
2019-01-13T08:43:51.177Z,95001.9
2019-01-13T08:44:53.610Z,95001
2019-01-13T08:45:55.774Z,94997.3
2019-01-13T08:46:57.928Z,94992.1
2019-01-13T08:48:00.083Z,94985.9
2019-01-13T08:49:02.532Z,94990.8
2019-01-13T08:50:04.705Z,94986.5
2019-01-13T08:51:07.131Z,94984.1
2019-01-13T08:52:09.291Z,94984.6
2019-01-13T08:53:11.727Z,94980.7
2019-01-13T08:54:13.899Z,94984.6
2019-01-13T08:55:16.020Z,94984.6
2019-01-13T08:56:18.578Z,94986.3
2019-01-13T08:57:20.999Z,94990.1
2019-01-13T08:58:23.152Z,94986.6
2019-01-13T08:59:25.579Z,94980.4
2019-01-13T09:00:28.019Z,94971.8
2019-01-13T09:01:30.456Z,94978.3
2019-01-13T09:02:33.591Z,94983.2
2019-01-13T09:03:35.750Z,94978.9
2019-01-13T09:04:37.912Z,94987.3
2019-01-13T09:05:40.080Z,94976.1
2019-01-13T09:06:42.236Z,94987.6
2019-01-13T09:07:44.681Z,94986
2019-01-13T09:08:46.854Z,94989.2
2019-01-13T09:09:49.275Z,94989.5
2019-01-13T09:10:51.442Z,94991.6
2019-01-13T09:11:53.588Z,94990.5
2019-01-13T09:14:01.053Z,94990.6
2019-01-13T09:15:03.499Z,94991.5
2019-01-13T09:16:05.694Z,94995.1
2019-01-13T09:17:08.111Z,94993.2
2019-01-13T09:18:10.542Z,94993.7
2019-01-13T09:19:12.974Z,94997.9
2019-01-13T09:20:14.868Z,94994.7
2019-01-13T09:21:19.005Z,94995.7
2019-01-13T09:22:21.463Z,95002.4
2019-01-13T09:23:23.622Z,95001.6
2019-01-13T09:24:26.047Z,94994.5
2019-01-13T09:25:28.214Z,94996.2
2019-01-13T09:26:30.656Z,94990.5
2019-01-13T09:27:32.562Z,94991.5
2019-01-13T09:28:34.724Z,94991.1
2019-01-13T09:30:41.869Z,94994.4
2019-01-13T09:31:44.307Z,94993.3
2019-01-13T09:32:46.733Z,94988.3
2019-01-13T09:33:48.631Z,94990.3
2019-01-13T09:34:50.753Z,94989.3
2019-01-13T09:35:52.904Z,94988.7
2019-01-13T09:36:55.344Z,94988.1
2019-01-13T09:37:57.806Z,94987.9
2019-01-13T09:38:59.956Z,94990.5
2019-01-13T09:40:02.405Z,94981
2019-01-13T09:41:04.006Z,94985.8
2019-01-13T09:42:06.443Z,94984.4
2019-01-13T09:43:08.620Z,94983.3
2019-01-13T09:44:11.066Z,94978.8
2019-01-13T09:45:13.221Z,94976.1
2019-01-13T09:46:15.644Z,94974.9
2019-01-13T09:47:18.095Z,94969
2019-01-13T09:48:20.536Z,94966.7
2019-01-13T09:49:24.262Z,94965
2019-01-13T09:50:26.165Z,94960.7
2019-01-13T09:51:28.595Z,94954.2
2019-01-13T09:52:31.015Z,94947.2
2019-01-13T09:53:33.175Z,94946.9
2019-01-13T09:54:35.602Z,94947.1
2019-01-13T09:55:38.032Z,94946.1
2019-01-13T09:56:40.454Z,94939.1
2019-01-13T09:57:42.882Z,94938.1
2019-01-13T09:58:45.054Z,94931.9
2019-01-13T09:59:47.222Z,94927.9
2019-01-13T10:00:49.650Z,94931.4
2019-01-13T10:01:51.809Z,94933.6
2019-01-13T10:02:53.996Z,94928.2
2019-01-13T10:03:56.435Z,94925.1
2019-01-13T10:04:58.875Z,94926.7
2019-01-13T10:06:01.052Z,94921.7
2019-01-13T10:07:03.218Z,94921.4
2019-01-13T10:08:05.380Z,94918.1
2019-01-13T10:09:07.815Z,94921.9
2019-01-13T10:10:10.293Z,94919
2019-01-13T10:11:12.446Z,94918.6
2019-01-13T10:12:14.910Z,94913.7
2019-01-13T10:13:17.388Z,94907.7
2019-01-13T10:14:19.836Z,94910.5
2019-01-13T10:15:22.306Z,94906.4
2019-01-13T10:16:24.745Z,94906.4
2019-01-13T10:17:26.904Z,94902.2
2019-01-13T10:18:29.078Z,94904.1
2019-01-13T10:19:31.222Z,94902
2019-01-13T10:20:33.098Z,94896
2019-01-13T10:21:35.530Z,94890.3
2019-01-13T10:22:37.719Z,94878
2019-01-13T10:23:40.145Z,94884.8
2019-01-13T10:24:41.736Z,94883.2
2019-01-13T10:25:44.175Z,94880.7
2019-01-13T10:26:46.314Z,94876.2
2019-01-13T10:27:48.746Z,94872.1
2019-01-13T10:28:50.900Z,94876.7
2019-01-13T10:29:53.331Z,94872.1
2019-01-13T10:31:02.975Z,94872.8
2019-01-13T10:32:01.630Z,94872.9
2019-01-13T10:33:04.066Z,94870.6
2019-01-13T10:34:06.521Z,94866.4
2019-01-13T10:35:08.952Z,94870.4
2019-01-13T10:36:11.129Z,94863.3
2019-01-13T10:37:13.023Z,94859.8
2019-01-13T10:38:15.151Z,94861.9
2019-01-13T10:39:17.315Z,94863.4
2019-01-13T10:40:19.488Z,94861.6
2019-01-13T10:41:22.074Z,94865
2019-01-13T10:42:24.594Z,94858.7
2019-01-13T10:43:26.744Z,94856.9
2019-01-13T10:44:28.921Z,94855.4
2019-01-13T10:45:31.349Z,94849
2019-01-13T10:46:32.953Z,94854
2019-01-13T10:47:35.093Z,94852.8
2019-01-13T10:48:37.519Z,94848.7
2019-01-13T10:49:39.802Z,94847.1
2019-01-13T10:50:42.298Z,94838.1
2019-01-13T10:51:44.470Z,94842.2
2019-01-13T10:52:46.913Z,94836.9
2019-01-13T10:53:49.075Z,94834.5
2019-01-13T10:54:51.504Z,94837.7
2019-01-13T10:55:55.479Z,94837.6
2019-01-13T10:56:58.060Z,94837.6
2019-01-13T10:58:00.216Z,94832.3
2019-01-13T10:59:02.646Z,94833.4
2019-01-13T11:00:04.805Z,94831.5
2019-01-13T11:01:07.236Z,94825.7
2019-01-13T11:02:09.663Z,94815.4
2019-01-13T11:03:12.099Z,94824.9
2019-01-13T11:04:13.985Z,94816.4
2019-01-13T11:05:16.411Z,94812.1
2019-01-13T11:06:18.552Z,94816
2019-01-13T11:07:20.711Z,94806.8
2019-01-13T11:08:22.856Z,94810.3
2019-01-13T11:09:25.002Z,94811.4
2019-01-13T11:10:26.922Z,94802.2
2019-01-13T11:11:29.058Z,94801.4
2019-01-13T11:12:31.242Z,94800.6
2019-01-13T11:13:33.687Z,94803.5
2019-01-13T11:14:36.122Z,94794.4
2019-01-13T11:15:38.620Z,94790.1
2019-01-13T11:16:40.789Z,94793.6
2019-01-13T11:17:42.679Z,94799.5
2019-01-13T11:18:45.103Z,94794.9
2019-01-13T11:19:47.260Z,94792.6
2019-01-13T11:20:49.705Z,94793.9
2019-01-13T11:21:52.147Z,94787.9
2019-01-13T11:22:54.640Z,94787.9
2019-01-13T11:23:56.773Z,94783.5
2019-01-13T11:24:59.202Z,94782.8
2019-01-13T11:26:01.359Z,94773.6
2019-01-13T11:27:03.784Z,94769.6
2019-01-13T11:28:06.226Z,94771.1
2019-01-13T11:29:08.666Z,94758.5
2019-01-13T11:30:12.439Z,94761.3
2019-01-13T11:31:14.603Z,94762.9
2019-01-13T11:32:16.765Z,94759
2019-01-13T11:33:19.220Z,94759.3
2019-01-13T11:34:21.665Z,94753.1
2019-01-13T11:35:23.815Z,94752.2
2019-01-13T11:36:26.251Z,94746.5
2019-01-13T11:37:28.417Z,94745.8
2019-01-13T11:38:30.856Z,94739.3
2019-01-13T11:39:33.108Z,94742.4
2019-01-13T11:40:35.543Z,94732.7
2019-01-13T11:41:37.981Z,94735
2019-01-13T11:42:40.419Z,94734.8
2019-01-13T11:43:42.854Z,94739.1
2019-01-13T11:44:45.003Z,94731
2019-01-13T11:45:47.420Z,94725.8
2019-01-13T11:46:49.846Z,94726.4
2019-01-13T11:47:52.014Z,94723.9
2019-01-13T11:48:54.452Z,94719.5
2019-01-13T11:49:56.934Z,94714.4
2019-01-13T11:50:59.439Z,94711.4
2019-01-13T11:52:01.618Z,94712
2019-01-13T11:53:04.063Z,94701.6
2019-01-13T11:54:06.206Z,94704.3
2019-01-13T11:55:08.089Z,94707.2
2019-01-13T11:56:10.526Z,94700.7
2019-01-13T11:57:12.955Z,94698.4
2019-01-13T11:58:17.297Z,94693.2
2019-01-13T11:59:19.447Z,94690.8
2019-01-13T12:00:21.891Z,94686.5
2019-01-13T12:01:24.325Z,94687
2019-01-13T12:03:31.731Z,94676.9
2019-01-13T12:04:34.161Z,94680.6
2019-01-13T12:05:36.316Z,94674.7
2019-01-13T12:06:38.754Z,94675.9
2019-01-13T12:07:41.210Z,94672.3
2019-01-13T12:08:43.671Z,94671
2019-01-13T12:09:45.817Z,94662.2
2019-01-13T12:10:48.260Z,94668
2019-01-13T12:11:50.684Z,94658.6
2019-01-13T12:12:52.855Z,94654
2019-01-13T12:13:54.756Z,94659.1
2019-01-13T12:14:57.212Z,94658.8
2019-01-13T12:15:59.645Z,94648.3
2019-01-13T12:17:02.152Z,94651.2
2019-01-13T12:18:04.591Z,94641
2019-01-13T12:19:07.042Z,94643.5
2019-01-13T12:20:09.481Z,94649.2
2019-01-13T12:21:11.651Z,94645.7
2019-01-13T12:22:13.837Z,94628.8
2019-01-13T12:23:16.265Z,94635.2
2019-01-13T12:24:18.708Z,94617.5
2019-01-13T12:25:20.874Z,94619.1
2019-01-13T12:26:23.024Z,94613.2
2019-01-13T12:27:24.907Z,94612.3
2019-01-13T12:28:27.333Z,94598.1
2019-01-13T12:29:31.371Z,94605.3
2019-01-13T12:30:33.809Z,94591.1
2019-01-13T12:31:36.236Z,94593.6
2019-01-13T12:32:38.675Z,94590.8
2019-01-13T12:33:41.112Z,94589.2
2019-01-13T12:34:43.547Z,94581.2
2019-01-13T12:35:45.973Z,94587.3
2019-01-13T12:36:48.416Z,94585.8
2019-01-13T12:37:50.877Z,94576.4
2019-01-13T12:38:53.307Z,94580.5
2019-01-13T12:39:55.467Z,94577.2
2019-01-13T12:40:57.928Z,94574.3
2019-01-13T12:42:02.063Z,94571.5
2019-01-13T12:43:04.498Z,94570.4
2019-01-13T12:44:06.383Z,94565
2019-01-13T12:45:08.594Z,94567.9
2019-01-13T12:46:12.503Z,94570.8
2019-01-13T12:47:14.955Z,94571.9